Time,TemperatureF,DewpointF,PressureIn,WindDirection,WindDirectionDegrees,WindSpeedMPH,WindSpeedGustMPH,Humidity,HourlyPrecipIn,Conditions,Clouds,dailyrainin,SoftwareType,DateUTC
2013-01-09 05:47:00,14.4,11.2,30.39,East,90,0.0,0.0,87,0.00,,,0.00,Wunderground v.1.13,2013-01-09 10:47:00,
2013-01-09 05:48:00,14.4,11.2,30.39,East,90,0.0,0.0,87,0.00,,,0.00,Wunderground v.1.13,2013-01-09 10:48:00,
2013-01-09 05:53:00,14.2,11.3,30.39,East,90,0.0,0.0,88,0.00,,,0.00,Wunderground v.1.13,2013-01-09 10:53:00,
2013-01-09 05:58:00,14.1,11.2,30.39,East,90,0.0,0.0,88,0.00,,,0.00,Wunderground v.1.13,2013-01-09 10:58:00,
2013-01-09 06:04:00,13.8,10.6,30.39,East,90,0.0,0.0,87,0.00,,,0.00,Wunderground v.1.13,2013-01-09 11:04:00,
2013-01-09 06:09:00,13.8,10.9,30.39,East,90,0.0,0.0,88,0.00,,,0.00,Wunderground v.1.13,2013-01-09 11:09:00,
2013-01-09 06:14:00,13.7,10.5,30.39,East,90,0.0,0.0,87,0.00,,,0.00,Wunderground v.1.13,2013-01-09 11:14:00,
2013-01-09 06:19:00,13.6,10.5,30.40,East,90,0.0,0.0,87,0.00,,,0.00,Wunderground v.1.13,2013-01-09 11:19:00,
2013-01-09 06:24:00,13.5,10.4,30.40,East,90,0.0,0.0,87,0.00,,,0.00,Wunderground v.1.13,2013-01-09 11:24:00,
2013-01-09 06:29:00,13.4,10.3,30.40,East,90,0.0,0.0,87,0.00,,,0.00,Wunderground v.1.13,2013-01-09 11:29:00,
2013-01-09 06:35:00,13.3,10.2,30.41,East,90,0.0,0.0,87,0.00,,,0.00,Wunderground v.1.13,2013-01-09 11:35:00,
2013-01-09 06:39:00,13.2,10.1,30.41,East,90,0.0,0.0,87,0.00,,,0.00,Wunderground v.1.13,2013-01-09 11:39:00,
2013-01-09 06:44:00,13.0,9.9,30.41,East,90,0.0,0.0,87,0.00,,,0.00,Wunderground v.1.13,2013-01-09 11:44:00,
2013-01-09 06:49:00,12.8,9.7,30.41,East,90,0.0,0.0,87,0.00,,,0.00,Wunderground v.1.13,2013-01-09 11:49:00,
2013-01-09 06:54:00,12.7,9.6,30.41,East,90,0.0,0.0,87,0.00,,,0.00,Wunderground v.1.13,2013-01-09 11:54:00,
2013-01-09 07:00:00,12.7,9.6,30.41,East,90,0.0,0.0,87,0.00,,,0.00,Wunderground v.1.13,2013-01-09 12:00:00,
2013-01-09 07:05:00,12.7,9.6,30.41,East,90,0.0,0.0,87,0.00,,,0.00,Wunderground v.1.13,2013-01-09 12:05:00,
2013-01-09 07:10:00,12.6,9.5,30.41,East,90,0.0,0.0,87,0.00,,,0.00,Wunderground v.1.13,2013-01-09 12:10:00,
2013-01-09 07:15:00,12.5,9.4,30.41,East,90,0.0,0.0,87,0.00,,,0.00,Wunderground v.1.13,2013-01-09 12:15:00,
2013-01-09 07:20:00,12.3,9.2,30.41,East,90,0.0,0.0,87,0.00,,,0.00,Wunderground v.1.13,2013-01-09 12:20:00,
2013-01-09 07:26:00,12.3,9.4,30.41,East,90,0.0,0.0,88,0.00,,,0.00,Wunderground v.1.13,2013-01-09 12:26:00,
2013-01-09 07:31:00,12.4,9.5,30.40,East,90,0.0,0.0,88,0.00,,,0.00,Wunderground v.1.13,2013-01-09 12:31:00,
2013-01-09 07:36:00,12.5,9.6,30.40,East,90,0.0,0.0,88,0.00,,,0.00,Wunderground v.1.13,2013-01-09 12:36:00,
2013-01-09 07:41:00,12.5,9.6,30.40,East,90,0.0,0.0,88,0.00,,,0.00,Wunderground v.1.13,2013-01-09 12:41:00,
2013-01-09 07:46:00,12.6,9.7,30.40,East,90,0.0,0.0,88,0.00,,,0.00,Wunderground v.1.13,2013-01-09 12:46:00,
2013-01-09 07:51:00,12.6,9.5,30.40,East,90,0.0,0.0,87,0.00,,,0.00,Wunderground v.1.13,2013-01-09 12:51:00,
2013-01-09 07:56:00,12.6,9.5,30.40,East,90,0.0,0.0,87,0.00,,,0.00,Wunderground v.1.13,2013-01-09 12:56:00,
2013-01-09 08:01:00,12.7,9.6,30.40,East,90,0.0,0.0,87,0.00,,,0.00,Wunderground v.1.13,2013-01-09 13:01:00,
2013-01-09 08:06:00,12.8,9.7,30.40,East,90,0.0,0.0,87,0.00,,,0.00,Wunderground v.1.13,2013-01-09 13:06:00,
2013-01-09 08:11:00,13.0,10.1,30.40,East,90,0.0,0.0,88,0.00,,,0.00,Wunderground v.1.13,2013-01-09 13:11:00,
2013-01-09 08:16:00,13.1,10.0,30.40,East,90,0.0,0.0,87,0.00,,,0.00,Wunderground v.1.13,2013-01-09 13:16:00,
2013-01-09 08:21:00,13.3,10.4,30.40,East,90,0.0,0.0,88,0.00,,,0.00,Wunderground v.1.13,2013-01-09 13:21:00,
2013-01-09 08:26:00,13.7,10.8,30.40,East,90,0.0,0.0,88,0.00,,,0.00,Wunderground v.1.13,2013-01-09 13:26:00,
2013-01-09 08:31:00,14.0,11.1,30.39,East,90,0.0,0.0,88,0.00,,,0.00,Wunderground v.1.13,2013-01-09 13:31:00,
2013-01-09 08:36:00,14.2,11.3,30.39,East,90,0.0,0.0,88,0.00,,,0.00,Wunderground v.1.13,2013-01-09 13:36:00,
2013-01-09 08:42:00,14.4,11.5,30.39,East,90,0.0,1.0,88,0.00,,,0.00,Wunderground v.1.13,2013-01-09 13:42:00,
2013-01-09 08:47:00,14.5,11.6,30.39,East,90,0.0,0.0,88,0.00,,,0.00,Wunderground v.1.13,2013-01-09 13:47:00,
2013-01-09 08:52:00,14.8,11.9,30.39,East,90,0.0,0.0,88,0.00,,,0.00,Wunderground v.1.13,2013-01-09 13:52:00,
2013-01-09 08:57:00,15.1,12.4,30.38,East,90,0.0,0.0,89,0.00,,,0.00,Wunderground v.1.13,2013-01-09 13:57:00,
2013-01-09 09:02:00,15.4,12.7,30.38,East,90,1.0,1.0,89,0.00,,,0.00,Wunderground v.1.13,2013-01-09 14:02:00,
2013-01-09 09:07:00,15.7,12.8,30.38,East,90,0.0,1.0,88,0.00,,,0.00,Wunderground v.1.13,2013-01-09 14:07:00,
2013-01-09 09:12:00,15.9,13.0,30.38,East,90,0.0,0.0,88,0.00,,,0.00,Wunderground v.1.13,2013-01-09 14:12:00,
2013-01-09 09:17:00,16.3,13.4,30.37,East,90,0.0,0.0,88,0.00,,,0.00,Wunderground v.1.13,2013-01-09 14:17:00,
2013-01-09 09:22:00,16.8,14.1,30.37,East,90,0.0,0.0,89,0.00,,,0.00,Wunderground v.1.13,2013-01-09 14:22:00,
2013-01-09 09:28:00,17.5,14.6,30.37,East,90,0.0,0.0,88,0.00,,,0.00,Wunderground v.1.13,2013-01-09 14:28:00,
2013-01-09 09:33:00,17.8,14.8,30.37,East,90,0.0,0.0,88,0.00,,,0.00,Wunderground v.1.13,2013-01-09 14:33:00,
2013-01-09 09:38:00,18.0,15.0,30.37,East,90,0.0,0.0,88,0.00,,,0.00,Wunderground v.1.13,2013-01-09 14:38:00,
2013-01-09 09:43:00,18.3,15.1,30.37,East,90,0.0,0.0,87,0.00,,,0.00,Wunderground v.1.13,2013-01-09 14:43:00,
2013-01-09 09:48:00,18.6,15.4,30.37,East,90,0.0,0.0,87,0.00,,,0.00,Wunderground v.1.13,2013-01-09 14:48:00,
2013-01-09 09:53:00,19.0,15.8,30.37,East,90,0.0,0.0,87,0.00,,,0.00,Wunderground v.1.13,2013-01-09 14:53:00,
2013-01-09 09:58:00,19.5,16.3,30.36,East,90,0.0,0.0,87,0.00,,,0.00,Wunderground v.1.13,2013-01-09 14:58:00,
2013-01-09 10:03:00,19.9,16.7,30.36,East,90,0.0,0.0,87,0.00,,,0.00,Wunderground v.1.13,2013-01-09 15:03:00,
2013-01-09 10:08:00,20.4,17.1,30.36,East,90,0.0,0.0,87,0.00,,,0.00,Wunderground v.1.13,2013-01-09 15:08:00,
2013-01-09 10:13:00,20.7,17.2,30.35,East,90,0.0,0.0,86,0.00,,,0.00,Wunderground v.1.13,2013-01-09 15:13:00,
2013-01-09 10:18:00,21.1,17.6,30.35,East,90,0.0,0.0,86,0.00,,,0.00,Wunderground v.1.13,2013-01-09 15:18:00,
2013-01-09 10:23:00,21.2,17.7,30.35,East,90,1.0,2.0,86,0.00,,,0.00,Wunderground v.1.13,2013-01-09 15:23:00,
2013-01-09 10:28:00,21.1,17.3,30.35,East,90,0.0,1.0,85,0.00,,,0.00,Wunderground v.1.13,2013-01-09 15:28:00,
2013-01-09 10:34:00,21.3,17.8,30.35,East,90,0.0,1.0,86,0.00,,,0.00,Wunderground v.1.13,2013-01-09 15:34:00,
2013-01-09 10:39:00,21.8,18.3,30.32,East,90,0.0,0.0,86,0.00,,,0.00,Wunderground v.1.13,2013-01-09 15:39:00,
2013-01-09 10:44:00,22.3,18.5,30.32,East,90,0.0,0.0,85,0.00,,,0.00,Wunderground v.1.13,2013-01-09 15:44:00,
2013-01-09 10:49:00,22.6,18.2,30.31,East,90,2.0,3.0,83,0.00,,,0.00,Wunderground v.1.13,2013-01-09 15:49:00,
2013-01-09 10:54:00,22.8,18.1,30.30,East,90,0.0,2.0,82,0.00,,,0.00,Wunderground v.1.13,2013-01-09 15:54:00,
2013-01-09 10:59:00,23.1,18.4,30.30,East,90,1.0,1.0,82,0.00,,,0.00,Wunderground v.1.13,2013-01-09 15:59:00,
2013-01-09 11:04:00,23.6,18.9,30.29,East,90,1.0,2.0,82,0.00,,,0.00,Wunderground v.1.13,2013-01-09 16:04:00,
2013-01-09 11:09:00,24.2,19.2,30.28,East,90,0.0,1.0,81,0.00,,,0.00,Wunderground v.1.13,2013-01-09 16:09:00,
2013-01-09 11:14:00,24.6,19.0,30.27,East,90,0.0,1.0,79,0.00,,,0.00,Wunderground v.1.13,2013-01-09 16:14:00,
2013-01-09 11:19:00,25.2,19.6,30.27,East,90,0.0,0.0,79,0.00,,,0.00,Wunderground v.1.13,2013-01-09 16:19:00,
2013-01-09 11:24:00,25.9,20.0,30.26,East,90,2.0,3.0,78,0.00,,,0.00,Wunderground v.1.13,2013-01-09 16:24:00,
2013-01-09 11:29:00,26.1,19.9,30.25,East,92,2.0,2.0,77,0.00,,,0.00,Wunderground v.1.13,2013-01-09 16:29:00,
2013-01-09 11:34:00,26.4,20.2,30.25,East,92,1.0,2.0,77,0.00,,,0.00,Wunderground v.1.13,2013-01-09 16:34:00,
2013-01-09 11:39:00,26.7,20.1,30.25,East,93,1.0,3.0,76,0.00,,,0.00,Wunderground v.1.13,2013-01-09 16:39:00,
2013-01-09 11:45:00,27.1,20.5,30.23,East,93,0.0,2.0,76,0.00,,,0.00,Wunderground v.1.13,2013-01-09 16:45:00,
2013-01-09 11:50:00,27.5,20.9,30.22,East,93,0.0,1.0,76,0.00,,,0.00,Wunderground v.1.13,2013-01-09 16:50:00,
2013-01-09 11:55:00,28.1,21.5,30.21,East,93,0.0,1.0,76,0.00,,,0.00,Wunderground v.1.13,2013-01-09 16:55:00,
2013-01-09 12:00:00,28.5,21.6,30.22,East,93,0.0,2.0,75,0.00,,,0.00,Wunderground v.1.13,2013-01-09 17:00:00,
2013-01-09 12:06:00,28.9,21.7,30.22,East,96,3.0,3.0,74,0.00,,,0.00,Wunderground v.1.13,2013-01-09 17:06:00,
2013-01-09 12:11:00,29.3,22.0,30.23,East,96,1.0,3.0,74,0.00,,,0.00,Wunderground v.1.13,2013-01-09 17:11:00,
2013-01-09 12:16:00,29.8,22.5,30.23,East,96,0.0,2.0,74,0.00,,,0.00,Wunderground v.1.13,2013-01-09 17:16:00,
2013-01-09 12:21:00,30.5,23.2,30.22,East,96,0.0,1.0,74,0.00,,,0.00,Wunderground v.1.13,2013-01-09 17:21:00,
2013-01-09 12:27:00,31.1,23.5,30.22,East,99,1.0,3.0,73,0.00,,,0.00,Wunderground v.1.13,2013-01-09 17:27:00,
2013-01-09 12:32:00,31.4,23.4,30.23,East,99,1.0,2.0,72,0.00,,,0.00,Wunderground v.1.13,2013-01-09 17:32:00,
2013-01-09 12:37:00,31.9,24.2,30.22,East,99,2.0,3.0,73,0.00,,,0.00,Wunderground v.1.13,2013-01-09 17:37:00,
2013-01-09 12:42:00,32.6,24.6,30.21,East,99,0.0,2.0,72,0.00,,,0.00,Wunderground v.1.13,2013-01-09 17:42:00,
2013-01-09 12:47:00,33.4,25.0,30.22,East,99,1.0,2.0,71,0.00,,,0.00,Wunderground v.1.13,2013-01-09 17:47:00,
2013-01-09 12:52:00,33.9,25.5,30.22,East,99,1.0,1.0,71,0.00,,,0.00,Wunderground v.1.13,2013-01-09 17:52:00,
2013-01-09 12:57:00,34.4,26.0,30.22,East,99,2.0,2.0,71,0.00,,,0.00,Wunderground v.1.13,2013-01-09 17:57:00,
2013-01-09 13:02:00,34.7,26.6,30.21,East,99,3.0,3.0,72,0.00,,,0.00,Wunderground v.1.13,2013-01-09 18:02:00,
2013-01-09 13:07:00,35.1,25.6,30.20,SE,129,2.0,2.0,68,0.00,,,0.00,Wunderground v.1.13,2013-01-09 18:07:00,
2013-01-09 13:12:00,37.1,26.8,30.18,WNW,295,0.0,2.0,66,0.00,,,0.00,Wunderground v.1.13,2013-01-09 18:12:00,
2013-01-09 13:17:00,38.4,27.3,30.18,NE,35,3.0,3.0,64,0.00,,,0.00,Wunderground v.1.13,2013-01-09 18:17:00,
2013-01-09 13:22:00,38.9,27.0,30.17,NE,35,4.0,4.0,62,0.00,,,0.00,Wunderground v.1.13,2013-01-09 18:22:00,
2013-01-09 13:27:00,39.1,27.6,30.16,SE,132,2.0,5.0,63,0.00,,,0.00,Wunderground v.1.13,2013-01-09 18:27:00,
2013-01-09 13:33:00,39.2,28.0,30.16,SSE,158,0.0,7.0,64,0.00,,,0.00,Wunderground v.1.13,2013-01-09 18:33:00,
2013-01-09 13:38:00,39.3,28.1,30.16,NE,51,1.0,3.0,64,0.00,,,0.00,Wunderground v.1.13,2013-01-09 18:38:00,
2013-01-09 13:41:00,39.3,28.5,30.15,East,82,5.0,5.0,65,0.00,,,0.00,Wunderground v.1.13,2013-01-09 18:41:00,
2013-01-09 13:42:00,39.3,28.5,30.15,ENE,69,1.0,2.0,65,0.00,,,0.00,Wunderground v.1.13,2013-01-09 18:42:00,
2013-01-09 13:44:00,39.3,28.5,30.15,ENE,69,1.0,2.0,65,0.00,,,0.00,Wunderground v.1.13,2013-01-09 18:44:00,
2013-01-09 13:48:00,39.3,28.5,30.15,ENE,63,2.0,2.0,65,0.00,,,0.00,Wunderground v.1.13,2013-01-09 18:48:00,
2013-01-09 13:53:00,39.5,28.3,30.15,NE,50,2.0,4.0,64,0.00,,,0.00,Wunderground v.1.13,2013-01-09 18:53:00,
2013-01-09 13:59:00,39.4,28.6,30.15,NE,42,0.0,2.0,65,0.00,,,0.00,Wunderground v.1.13,2013-01-09 18:59:00,
2013-01-09 14:04:00,39.3,28.5,30.14,NE,42,0.0,1.0,65,0.00,,,0.00,Wunderground v.1.13,2013-01-09 19:04:00,
2013-01-09 14:09:00,39.3,28.5,30.14,North,355,1.0,3.0,65,0.00,,,0.00,Wunderground v.1.13,2013-01-09 19:09:00,
2013-01-09 14:14:00,39.3,29.3,30.14,WNW,303,0.0,3.0,67,0.00,,,0.00,Wunderground v.1.13,2013-01-09 19:14:00,
2013-01-09 14:19:00,39.2,28.8,30.14,ENE,76,4.0,4.0,66,0.00,,,0.00,Wunderground v.1.13,2013-01-09 19:19:00,
2013-01-09 14:24:00,39.3,29.3,30.15,NNW,328,0.0,3.0,67,0.00,,,0.00,Wunderground v.1.13,2013-01-09 19:24:00,
2013-01-09 14:30:00,39.3,29.6,30.15,ENE,75,3.0,3.0,68,0.00,,,0.00,Wunderground v.1.13,2013-01-09 19:30:00,
2013-01-09 14:35:00,39.1,29.8,30.13,East,79,0.0,5.0,69,0.00,,,0.00,Wunderground v.1.13,2013-01-09 19:35:00,
2013-01-09 14:40:00,38.9,30.6,30.11,East,81,1.0,2.0,72,0.00,,,0.00,Wunderground v.1.13,2013-01-09 19:40:00,
2013-01-09 14:45:00,38.6,30.7,30.10,ENE,76,0.0,2.0,73,0.00,,,0.00,Wunderground v.1.13,2013-01-09 19:45:00,
2013-01-09 14:50:00,38.5,31.3,30.10,ENE,77,0.0,3.0,75,0.00,,,0.00,Wunderground v.1.13,2013-01-09 19:50:00,
2013-01-09 14:55:00,38.2,31.3,30.09,ENE,77,0.0,1.0,76,0.00,,,0.00,Wunderground v.1.13,2013-01-09 19:55:00,
2013-01-09 15:00:00,37.9,31.3,30.09,ENE,77,1.0,2.0,77,0.00,,,0.00,Wunderground v.1.13,2013-01-09 20:00:00,
2013-01-09 15:05:00,37.9,31.3,30.09,East,88,2.0,6.0,77,0.00,,,0.00,Wunderground v.1.13,2013-01-09 20:05:00,
2013-01-09 15:11:00,38.2,31.3,30.08,ESE,115,2.0,7.0,76,0.00,,,0.00,Wunderground v.1.13,2013-01-09 20:11:00,
2013-01-09 15:16:00,38.5,31.3,30.08,SW,222,1.0,4.0,75,0.00,,,0.00,Wunderground v.1.13,2013-01-09 20:16:00,
2013-01-09 15:21:00,38.7,31.1,30.07,ESE,104,2.0,6.0,74,0.00,,,0.00,Wunderground v.1.13,2013-01-09 20:21:00,
2013-01-09 15:26:00,38.8,31.2,30.07,NE,51,2.0,5.0,74,0.00,,,0.00,Wunderground v.1.13,2013-01-09 20:26:00,
2013-01-09 15:31:00,39.0,31.4,30.07,ESE,102,2.0,7.0,74,0.00,,,0.00,Wunderground v.1.13,2013-01-09 20:31:00,
2013-01-09 15:37:00,39.1,31.2,30.07,NE,56,6.0,6.0,73,0.00,,,0.00,Wunderground v.1.13,2013-01-09 20:37:00,
2013-01-09 15:42:00,39.3,31.4,30.07,SSW,210,1.0,7.0,73,0.00,,,0.00,Wunderground v.1.13,2013-01-09 20:42:00,
2013-01-09 15:47:00,39.4,31.5,30.07,ESE,115,2.0,2.0,73,0.00,,,0.00,Wunderground v.1.13,2013-01-09 20:47:00,
2013-01-09 15:52:00,39.6,31.7,30.06,East,83,3.0,3.0,73,0.00,,,0.00,Wunderground v.1.13,2013-01-09 20:52:00,
2013-01-09 15:57:00,39.4,31.5,30.06,NE,46,3.0,3.0,73,0.00,,,0.00,Wunderground v.1.13,2013-01-09 20:57:00,
2013-01-09 16:02:00,39.4,31.8,30.06,ENE,67,2.0,2.0,74,0.00,,,0.00,Wunderground v.1.13,2013-01-09 21:02:00,
2013-01-09 16:07:00,39.3,31.7,30.06,East,80,1.0,1.0,74,0.00,,,0.00,Wunderground v.1.13,2013-01-09 21:07:00,
2013-01-09 16:12:00,39.4,31.5,30.05,ESE,109,4.0,5.0,73,0.00,,,0.00,Wunderground v.1.13,2013-01-09 21:12:00,
2013-01-09 16:17:00,39.6,31.7,30.04,SW,225,0.0,2.0,73,0.00,,,0.00,Wunderground v.1.13,2013-01-09 21:17:00,
2013-01-09 16:22:00,39.6,31.7,30.04,East,79,1.0,2.0,73,0.00,,,0.00,Wunderground v.1.13,2013-01-09 21:22:00,
2013-01-09 16:27:00,39.6,31.7,30.03,ENE,78,0.0,1.0,73,0.00,,,0.00,Wunderground v.1.13,2013-01-09 21:27:00,
2013-01-09 16:33:00,39.7,31.8,30.02,East,85,0.0,4.0,73,0.00,,,0.00,Wunderground v.1.13,2013-01-09 21:33:00,
2013-01-09 16:38:00,39.8,31.5,30.02,West,272,1.0,2.0,72,0.00,,,0.00,Wunderground v.1.13,2013-01-09 21:38:00,
2013-01-09 16:43:00,39.8,31.5,30.02,NE,51,0.0,5.0,72,0.00,,,0.00,Wunderground v.1.13,2013-01-09 21:43:00,
2013-01-09 16:48:00,39.8,31.5,30.02,NW,319,1.0,4.0,72,0.00,,,0.00,Wunderground v.1.13,2013-01-09 21:48:00,
2013-01-09 16:53:00,40.0,31.7,30.02,NNE,15,1.0,5.0,72,0.00,,,0.00,Wunderground v.1.13,2013-01-09 21:53:00,
2013-01-09 16:59:00,40.1,31.8,30.01,West,265,1.0,4.0,72,0.00,,,0.00,Wunderground v.1.13,2013-01-09 21:59:00,
2013-01-09 17:04:00,40.1,31.8,30.02,East,91,1.0,5.0,72,0.00,,,0.00,Wunderground v.1.13,2013-01-09 22:04:00,
2013-01-09 17:09:00,40.1,32.1,30.02,SE,128,3.0,5.0,73,0.00,,,0.00,Wunderground v.1.13,2013-01-09 22:09:00,
2013-01-09 17:14:00,40.0,32.0,30.03,NW,305,2.0,8.0,73,0.00,,,0.00,Wunderground v.1.13,2013-01-09 22:14:00,
2013-01-09 17:19:00,40.1,32.1,30.04,SE,139,1.0,9.0,73,0.00,,,0.00,Wunderground v.1.13,2013-01-09 22:19:00,
2013-01-09 17:24:00,40.3,32.3,30.03,NE,36,2.0,9.0,73,0.00,,,0.00,Wunderground v.1.13,2013-01-09 22:24:00,
2013-01-09 17:29:00,40.1,32.1,30.03,NNW,340,0.0,4.0,73,0.00,,,0.00,Wunderground v.1.13,2013-01-09 22:29:00,
2013-01-09 17:34:00,39.8,32.2,30.03,North,9,2.0,3.0,74,0.00,,,0.00,Wunderground v.1.13,2013-01-09 22:34:00,
2013-01-09 17:40:00,39.4,32.1,30.03,NNE,22,3.0,3.0,75,0.00,,,0.00,Wunderground v.1.13,2013-01-09 22:40:00,
2013-01-09 17:45:00,39.1,31.8,30.04,North,5,0.0,4.0,75,0.00,,,0.00,Wunderground v.1.13,2013-01-09 22:45:00,
2013-01-09 17:50:00,39.0,32.1,30.03,NE,53,0.0,5.0,76,0.00,,,0.00,Wunderground v.1.13,2013-01-09 22:50:00,
2013-01-09 17:55:00,38.9,32.0,30.04,NE,35,3.0,6.0,76,0.00,,,0.00,Wunderground v.1.13,2013-01-09 22:55:00,
2013-01-09 18:01:00,38.8,32.2,30.04,ENE,60,1.0,5.0,77,0.00,,,0.00,Wunderground v.1.13,2013-01-09 23:01:00,
2013-01-09 18:06:00,38.8,32.2,30.04,NNE,20,2.0,6.0,77,0.00,,,0.00,Wunderground v.1.13,2013-01-09 23:06:00,
2013-01-09 18:11:00,38.8,32.2,30.04,West,261,2.0,4.0,77,0.00,,,0.00,Wunderground v.1.13,2013-01-09 23:11:00,
2013-01-09 18:16:00,38.9,32.3,30.04,WNW,302,0.0,9.0,77,0.00,,,0.00,Wunderground v.1.13,2013-01-09 23:16:00,
2013-01-09 18:21:00,38.9,32.3,30.04,SSE,151,2.0,5.0,77,0.00,,,0.00,Wunderground v.1.13,2013-01-09 23:21:00,
2013-01-09 18:27:00,38.9,32.3,30.04,NNW,331,3.0,3.0,77,0.00,,,0.00,Wunderground v.1.13,2013-01-09 23:27:00,
2013-01-09 18:32:00,39.0,32.4,30.04,SSW,212,0.0,6.0,77,0.00,,,0.00,Wunderground v.1.13,2013-01-09 23:32:00,
2013-01-09 18:37:00,39.3,32.7,30.04,WNW,297,0.0,5.0,77,0.00,,,0.00,Wunderground v.1.13,2013-01-09 23:37:00,
2013-01-09 18:42:00,39.4,32.5,30.04,NNW,329,0.0,1.0,76,0.00,,,0.00,Wunderground v.1.13,2013-01-09 23:42:00,
2013-01-09 18:47:00,39.5,32.6,30.04,SW,219,1.0,2.0,76,0.00,,,0.00,Wunderground v.1.13,2013-01-09 23:47:00,
2013-01-09 18:52:00,40.3,33.0,30.04,WNW,288,2.0,3.0,75,0.00,,,0.00,Wunderground v.1.13,2013-01-09 23:52:00,
2013-01-09 18:57:00,41.0,32.7,30.04,WSW,250,6.0,6.0,72,0.00,,,0.00,Wunderground v.1.13,2013-01-09 23:57:00,
2013-01-09 19:02:00,41.6,32.9,30.04,NW,309,4.0,9.0,71,0.00,,,0.00,Wunderground v.1.13,2013-01-10 00:02:00,
2013-01-09 19:08:00,42.0,32.6,30.03,WSW,243,3.0,6.0,69,0.00,,,0.00,Wunderground v.1.13,2013-01-10 00:08:00,
2013-01-09 19:13:00,42.0,32.6,30.04,West,259,5.0,7.0,69,0.00,,,0.00,Wunderground v.1.13,2013-01-10 00:13:00,
2013-01-09 19:18:00,42.1,32.3,30.04,NW,323,4.0,12.0,68,0.00,,,0.00,Wunderground v.1.13,2013-01-10 00:18:00,
2013-01-09 19:23:00,42.2,32.4,30.04,WSW,242,8.0,15.0,68,0.00,,,0.00,Wunderground v.1.13,2013-01-10 00:23:00,
2013-01-09 19:28:00,42.4,32.2,30.04,WSW,240,6.0,6.0,67,0.00,,,0.00,Wunderground v.1.13,2013-01-10 00:28:00,
2013-01-09 19:33:00,42.4,32.2,30.04,WSW,244,6.0,6.0,67,0.00,,,0.00,Wunderground v.1.13,2013-01-10 00:33:00,
2013-01-09 19:38:00,42.4,32.2,30.04,West,269,8.0,8.0,67,0.00,,,0.00,Wunderground v.1.13,2013-01-10 00:38:00,
2013-01-09 19:43:00,42.3,32.1,30.05,NW,311,2.0,14.0,67,0.00,,,0.00,Wunderground v.1.13,2013-01-10 00:43:00,
2013-01-09 19:49:00,42.1,31.9,30.05,NW,321,5.0,16.0,67,0.00,,,0.00,Wunderground v.1.13,2013-01-10 00:49:00,
2013-01-09 19:54:00,42.2,32.0,30.05,SW,217,4.0,17.0,67,0.00,,,0.00,Wunderground v.1.13,2013-01-10 00:54:00,
2013-01-09 19:59:00,42.0,32.2,30.05,West,279,5.0,9.0,68,0.00,,,0.00,Wunderground v.1.13,2013-01-10 00:59:00,
2013-01-09 20:04:00,41.9,32.1,30.05,WSW,254,10.0,10.0,68,0.00,,,0.00,Wunderground v.1.13,2013-01-10 01:04:00,
2013-01-09 20:09:00,41.9,32.1,30.05,NNW,345,7.0,12.0,68,0.00,,,0.00,Wunderground v.1.13,2013-01-10 01:09:00,
2013-01-09 20:14:00,41.8,32.0,30.05,WNW,288,3.0,8.0,68,0.00,,,0.00,Wunderground v.1.13,2013-01-10 01:14:00,
2013-01-09 20:20:00,41.7,31.5,30.05,NW,318,5.0,8.0,67,0.00,,,0.00,Wunderground v.1.13,2013-01-10 01:20:00,
2013-01-09 20:25:00,41.7,31.2,30.05,NNW,331,2.0,5.0,66,0.00,,,0.00,Wunderground v.1.13,2013-01-10 01:25:00,
2013-01-09 20:30:00,41.6,31.4,30.05,NW,323,4.0,7.0,67,0.00,,,0.00,Wunderground v.1.13,2013-01-10 01:30:00,
2013-01-09 20:35:00,41.6,31.1,30.05,SW,236,9.0,15.0,66,0.00,,,0.00,Wunderground v.1.13,2013-01-10 01:35:00,
2013-01-09 20:40:00,41.5,31.0,30.05,North,351,5.0,14.0,66,0.00,,,0.00,Wunderground v.1.13,2013-01-10 01:40:00,
2013-01-09 20:45:00,41.4,30.9,30.04,SW,232,2.0,9.0,66,0.00,,,0.00,Wunderground v.1.13,2013-01-10 01:45:00,
2013-01-09 20:50:00,41.3,30.4,30.04,West,271,14.0,19.0,65,0.00,,,0.00,Wunderground v.1.13,2013-01-10 01:50:00,
2013-01-09 20:55:00,41.1,29.8,30.05,NNW,340,4.0,12.0,64,0.00,,,0.00,Wunderground v.1.13,2013-01-10 01:55:00,
2013-01-09 21:01:00,40.8,29.9,30.05,West,264,4.0,8.0,65,0.00,,,0.00,Wunderground v.1.13,2013-01-10 02:01:00,
2013-01-09 21:06:00,40.4,29.6,30.05,SW,225,7.0,19.0,65,0.00,,,0.00,Wunderground v.1.13,2013-01-10 02:06:00,
2013-01-09 21:11:00,40.1,29.3,30.06,SW,215,4.0,14.0,65,0.00,,,0.00,Wunderground v.1.13,2013-01-10 02:11:00,
2013-01-09 21:16:00,39.6,28.4,30.07,NNW,327,6.0,19.0,64,0.00,,,0.00,Wunderground v.1.13,2013-01-10 02:16:00,
2013-01-09 21:21:00,39.2,28.4,30.06,WNW,288,1.0,10.0,65,0.00,,,0.00,Wunderground v.1.13,2013-01-10 02:21:00,
2013-01-09 21:26:00,38.9,27.8,30.07,WSW,257,7.0,19.0,64,0.00,,,0.00,Wunderground v.1.13,2013-01-10 02:26:00,
2013-01-09 21:31:00,38.8,27.7,30.06,North,360,5.0,13.0,64,0.00,,,0.00,Wunderground v.1.13,2013-01-10 02:31:00,
2013-01-09 21:36:00,38.7,27.6,30.07,West,278,6.0,14.0,64,0.00,,,0.00,Wunderground v.1.13,2013-01-10 02:36:00,
2013-01-09 21:41:00,38.5,27.4,30.06,WNW,294,3.0,19.0,64,0.00,,,0.00,Wunderground v.1.13,2013-01-10 02:41:00,
2013-01-09 21:46:00,38.3,27.2,30.07,SW,219,3.0,15.0,64,0.00,,,0.00,Wunderground v.1.13,2013-01-10 02:46:00,
2013-01-09 21:51:00,38.3,27.2,30.07,NNW,340,5.0,19.0,64,0.00,,,0.00,Wunderground v.1.13,2013-01-10 02:51:00,
2013-01-09 21:57:00,38.3,27.2,30.08,West,280,2.0,6.0,64,0.00,,,0.00,Wunderground v.1.13,2013-01-10 02:57:00,
2013-01-09 22:02:00,38.3,27.2,30.08,West,263,11.0,11.0,64,0.00,,,0.00,Wunderground v.1.13,2013-01-10 03:02:00,
2013-01-09 22:08:00,38.1,27.0,30.08,NW,314,5.0,5.0,64,0.00,,,0.00,Wunderground v.1.13,2013-01-10 03:08:00,
2013-01-09 22:13:00,38.1,27.0,30.08,West,275,6.0,10.0,64,0.00,,,0.00,Wunderground v.1.13,2013-01-10 03:13:00,
2013-01-09 22:18:00,38.1,27.0,30.09,NW,309,3.0,15.0,64,0.00,,,0.00,Wunderground v.1.13,2013-01-10 03:18:00,
2013-01-09 22:23:00,38.2,27.5,30.09,WNW,292,6.0,6.0,65,0.00,,,0.00,Wunderground v.1.13,2013-01-10 03:23:00,
2013-01-09 22:28:00,38.2,27.1,30.09,West,279,3.0,12.0,64,0.00,,,0.00,Wunderground v.1.13,2013-01-10 03:28:00,
2013-01-09 22:33:00,38.2,27.5,30.09,NW,321,2.0,9.0,65,0.00,,,0.00,Wunderground v.1.13,2013-01-10 03:33:00,
2013-01-09 22:39:00,38.1,27.4,30.09,NW,326,4.0,5.0,65,0.00,,,0.00,Wunderground v.1.13,2013-01-10 03:39:00,
2013-01-09 22:44:00,38.0,27.3,30.09,NW,317,3.0,8.0,65,0.00,,,0.00,Wunderground v.1.13,2013-01-10 03:44:00,
2013-01-09 22:49:00,38.1,27.4,30.09,WSW,253,4.0,10.0,65,0.00,,,0.00,Wunderground v.1.13,2013-01-10 03:49:00,
2013-01-09 22:54:00,38.1,27.4,30.10,NW,314,4.0,10.0,65,0.00,,,0.00,Wunderground v.1.13,2013-01-10 03:54:00,
2013-01-09 23:00:00,37.9,27.2,30.09,WSW,252,2.0,7.0,65,0.00,,,0.00,Wunderground v.1.13,2013-01-10 04:00:00,
2013-01-09 23:05:00,37.9,27.2,30.09,NNW,331,7.0,19.0,65,0.00,,,0.00,Wunderground v.1.13,2013-01-10 04:05:00,
2013-01-09 23:10:00,38.0,27.6,30.09,WSW,250,5.0,16.0,66,0.00,,,0.00,Wunderground v.1.13,2013-01-10 04:10:00,
2013-01-09 23:15:00,38.0,27.6,30.09,WSW,250,7.0,12.0,66,0.00,,,0.00,Wunderground v.1.13,2013-01-10 04:15:00,
2013-01-09 23:20:00,38.0,27.6,30.09,West,277,2.0,8.0,66,0.00,,,0.00,Wunderground v.1.13,2013-01-10 04:20:00,
2013-01-09 23:25:00,37.9,27.5,30.09,West,281,14.0,14.0,66,0.00,,,0.00,Wunderground v.1.13,2013-01-10 04:25:00,
2013-01-09 23:31:00,37.9,27.9,30.09,SW,233,11.0,13.0,67,0.00,,,0.00,Wunderground v.1.13,2013-01-10 04:31:00,
2013-01-09 23:36:00,37.9,27.9,30.08,WSW,248,5.0,15.0,67,0.00,,,0.00,Wunderground v.1.13,2013-01-10 04:36:00,
2013-01-09 23:41:00,37.9,27.9,30.08,WNW,292,2.0,13.0,67,0.00,,,0.00,Wunderground v.1.13,2013-01-10 04:41:00,
2013-01-09 23:46:00,37.9,27.9,30.09,NW,316,3.0,9.0,67,0.00,,,0.00,Wunderground v.1.13,2013-01-10 04:46:00,
2013-01-09 23:51:00,37.9,28.3,30.09,WNW,292,5.0,12.0,68,0.00,,,0.00,Wunderground v.1.13,2013-01-10 04:51:00,
2013-01-09 23:56:00,37.9,28.3,30.09,West,273,3.0,12.0,68,0.00,,,0.00,Wunderground v.1.13,2013-01-10 04:56:00,